createdAt,value
2023-01-28T00:02:57.524Z,76.16
2023-01-28T00:08:18.241Z,76.41
2023-01-28T00:13:39.445Z,76.38
2023-01-28T00:19:00.114Z,76.27
2023-01-28T00:24:20.973Z,76.16
2023-01-28T00:29:41.581Z,76.39
2023-01-28T00:35:02.199Z,76.39
2023-01-28T00:40:22.963Z,76.73
2023-01-28T00:45:43.837Z,76.41
2023-01-28T00:51:04.918Z,76.54
2023-01-28T00:56:25.607Z,76.78
2023-01-28T01:01:46.515Z,76.53
2023-01-28T01:07:07.636Z,76.48
2023-01-28T01:12:28.718Z,76.32
2023-01-28T01:17:50.588Z,77.01
2023-01-28T01:23:12.814Z,76.92
2023-01-28T01:28:35.085Z,76.21
2023-01-28T01:33:56.091Z,76.51
2023-01-28T01:39:17.110Z,76.39
2023-01-28T01:45:00.324Z,76.56
2023-01-28T01:50:42.456Z,76.60
2023-01-28T01:56:06.802Z,76.71
2023-01-28T02:01:30.914Z,76.12
2023-01-28T02:06:52.597Z,76.13
2023-01-28T02:12:17.959Z,76.36
2023-01-28T02:17:39.221Z,76.40
2023-01-28T02:23:24.841Z,76.47
2023-01-28T02:28:52.731Z,76.79
2023-01-28T02:34:38.856Z,76.99
2023-01-28T02:40:08.957Z,76.72
2023-01-28T02:45:53.073Z,76.60
2023-01-28T02:51:41.700Z,76.69
2023-01-28T02:57:23.253Z,76.86
2023-01-28T03:02:54.340Z,76.60
2023-01-28T03:08:34.185Z,76.94
2023-01-28T03:14:13.935Z,76.63
2023-01-28T03:19:53.677Z,76.72
2023-01-28T03:25:34.314Z,76.61
2023-01-28T03:31:29.092Z,76.79
2023-01-28T03:36:54.110Z,76.34
2023-01-28T03:42:40.896Z,76.77
2023-01-28T03:48:27.558Z,76.29
2023-01-28T03:53:48.553Z,76.61
2023-01-28T03:59:09.439Z,77.02
2023-01-28T04:04:32.739Z,76.73
2023-01-28T04:09:53.713Z,76.85
2023-01-28T04:15:31.059Z,76.74
2023-01-28T04:20:52.464Z,76.77
2023-01-28T04:26:13.736Z,76.46
2023-01-28T04:31:34.973Z,76.97
2023-01-28T04:37:18.672Z,76.64
2023-01-28T04:42:58.701Z,76.63
2023-01-28T04:48:40.642Z,76.33
2023-01-28T04:54:16.860Z,76.68
2023-01-28T04:59:38.351Z,77.01
2023-01-28T05:05:01.594Z,77.01
2023-01-28T05:10:50.172Z,77.14
2023-01-28T05:16:11.469Z,76.94
2023-01-28T05:21:32.156Z,76.87
2023-01-28T05:26:56.991Z,76.74
2023-01-28T05:32:18.238Z,76.71
2023-01-28T05:37:39.224Z,76.88
2023-01-28T05:43:00.632Z,76.69
2023-01-28T05:48:47.553Z,77.14
2023-01-28T05:54:28.813Z,77.32
2023-01-28T05:59:50.820Z,77.35
2023-01-28T06:05:11.539Z,76.92
2023-01-28T06:10:33.289Z,77.07
2023-01-28T06:15:54.146Z,77.01
2023-01-28T06:21:20.985Z,76.84
2023-01-28T06:26:41.748Z,77.17
2023-01-28T06:32:02.626Z,76.93
2023-01-28T06:37:26.011Z,76.86
2023-01-28T06:42:47.097Z,76.88
2023-01-28T06:48:08.881Z,76.78
2023-01-28T06:53:30.042Z,76.90
2023-01-28T06:58:51.159Z,77.32
2023-01-28T07:04:12.168Z,77.27
2023-01-28T07:09:33.034Z,77.32
2023-01-28T07:14:53.817Z,76.89
2023-01-28T07:20:16.013Z,77.00
2023-01-28T07:25:36.902Z,76.96
2023-01-28T07:30:57.985Z,76.97
2023-01-28T07:36:18.956Z,77.10
2023-01-28T07:41:39.612Z,76.77
2023-01-28T07:47:01.666Z,77.12
2023-01-28T07:52:22.848Z,76.83
2023-01-28T07:57:55.793Z,76.96
2023-01-28T08:03:16.889Z,77.25
2023-01-28T08:08:37.603Z,76.96
2023-01-28T08:13:58.217Z,77.21
2023-01-28T08:19:21.493Z,76.84
2023-01-28T08:24:42.338Z,76.92
2023-01-28T08:30:03.869Z,76.64
2023-01-28T08:35:26.046Z,76.53
2023-01-28T08:40:48.163Z,76.38
2023-01-28T08:46:09.152Z,76.48
2023-01-28T08:51:30.187Z,76.63
2023-01-28T08:56:51.696Z,76.82
2023-01-28T09:02:30.253Z,76.32
2023-01-28T09:07:51.383Z,76.76
2023-01-28T09:13:15.317Z,76.50
2023-01-28T09:18:36.192Z,76.22
2023-01-28T09:23:58.445Z,76.46
2023-01-28T09:29:19.600Z,76.41
2023-01-28T09:34:40.288Z,76.98
2023-01-28T09:40:01.153Z,77.04
2023-01-28T09:45:27.911Z,76.31
2023-01-28T09:50:54.809Z,76.59
2023-01-28T09:56:31.257Z,76.17
2023-01-28T10:02:04.373Z,76.60
2023-01-28T10:08:07.369Z,76.34
2023-01-28T10:13:37.964Z,76.54
2023-01-28T10:19:06.192Z,76.27
2023-01-28T10:24:36.720Z,76.21
2023-01-28T10:29:59.926Z,76.22
2023-01-28T10:35:22.415Z,76.51
2023-01-28T10:40:44.418Z,77.02
2023-01-28T10:46:14.531Z,76.50
2023-01-28T10:51:38.801Z,76.13
2023-01-28T10:57:04.281Z,76.27
2023-01-28T11:02:33.088Z,76.51
2023-01-28T11:08:04.057Z,76.50
2023-01-28T11:13:28.097Z,76.47
2023-01-28T11:19:05.369Z,76.19
2023-01-28T11:24:31.025Z,76.47
2023-01-28T11:29:52.723Z,76.35
2023-01-28T11:35:27.866Z,76.08
2023-01-28T11:41:06.689Z,75.96
2023-01-28T11:46:45.914Z,75.99
2023-01-28T11:52:25.624Z,76.43
2023-01-28T11:57:55.991Z,76.02
2023-01-28T12:03:28.082Z,75.83
2023-01-28T12:09:11.224Z,75.54
2023-01-28T12:15:00.035Z,75.37
2023-01-28T12:20:20.934Z,75.42
2023-01-28T12:25:54.044Z,75.82
2023-01-28T12:31:45.609Z,75.49
2023-01-28T12:37:38.715Z,75.58
2023-01-28T12:43:30.090Z,75.08
2023-01-28T12:49:06.538Z,75.40
2023-01-28T12:54:58.288Z,75.21
2023-01-28T13:00:28.582Z,75.23
2023-01-28T13:06:15.541Z,75.62
2023-01-28T13:11:37.745Z,75.25
2023-01-28T13:17:27.381Z,75.13
2023-01-28T13:22:48.323Z,75.15
2023-01-28T13:28:26.690Z,74.93
2023-01-28T13:33:56.507Z,74.87
2023-01-28T13:39:26.134Z,74.61
2023-01-28T13:44:47.274Z,74.74
2023-01-28T13:50:15.184Z,75.00
2023-01-28T13:55:45.174Z,74.52
2023-01-28T14:01:50.914Z,74.82
2023-01-28T14:07:30.537Z,74.73
2023-01-28T14:13:57.459Z,74.50
2023-01-28T14:19:26.359Z,74.71
2023-01-28T14:24:48.346Z,74.24
2023-01-28T14:30:16.347Z,74.02
2023-01-28T14:35:40.373Z,74.05
2023-01-28T14:41:02.123Z,74.45
2023-01-28T14:46:35.601Z,73.76
2023-01-28T14:52:24.654Z,74.42
2023-01-28T14:57:51.303Z,73.90
2023-01-28T15:03:24.894Z,74.08
2023-01-28T15:08:46.117Z,74.22
2023-01-28T15:14:16.442Z,73.47
2023-01-28T15:19:37.925Z,74.04
2023-01-28T15:24:58.662Z,74.10
2023-01-28T15:30:28.758Z,73.67
2023-01-28T15:35:51.731Z,73.64
2023-01-28T15:41:12.649Z,73.44
2023-01-28T15:46:33.985Z,73.17
2023-01-28T15:51:55.389Z,73.56
2023-01-28T15:57:20.890Z,73.23
2023-01-28T16:02:53.128Z,73.54
2023-01-28T16:08:27.083Z,73.21
2023-01-28T16:13:47.902Z,73.64
2023-01-28T16:19:08.533Z,73.56
2023-01-28T16:24:32.946Z,72.90
2023-01-28T16:29:54.328Z,72.97
2023-01-28T16:35:21.898Z,72.42
2023-01-28T16:40:43.827Z,72.47
2023-01-28T16:46:09.169Z,72.96
2023-01-28T16:51:31.494Z,73.31
2023-01-28T16:56:52.287Z,72.36
2023-01-28T17:02:14.975Z,73.16
2023-01-28T17:07:36.095Z,73.19
2023-01-28T17:12:58.736Z,72.85
2023-01-28T17:18:20.043Z,72.54
2023-01-28T17:23:41.362Z,72.80
2023-01-28T17:29:05.358Z,73.39
2023-01-28T17:34:27.616Z,72.45
2023-01-28T17:39:48.239Z,72.01
2023-01-28T17:45:09.859Z,72.58
2023-01-28T17:50:30.752Z,72.19
2023-01-28T17:55:51.639Z,72.54
2023-01-28T18:01:12.976Z,72.45
2023-01-28T18:06:35.384Z,72.40
2023-01-28T18:11:56.680Z,71.99
2023-01-28T18:17:19.828Z,72.21
2023-01-28T18:22:42.437Z,72.11
2023-01-28T18:28:05.297Z,72.04
2023-01-28T18:33:26.621Z,71.45
2023-01-28T18:38:47.387Z,70.86
2023-01-28T18:44:09.726Z,71.69
2023-01-28T18:49:30.910Z,71.94
2023-01-28T18:54:51.938Z,72.77
2023-01-28T19:00:13.015Z,71.29
2023-01-28T19:05:38.657Z,70.72
2023-01-28T19:10:59.839Z,71.27
2023-01-28T19:16:21.834Z,71.46
2023-01-28T19:21:43.344Z,70.80
2023-01-28T19:27:04.038Z,70.43
2023-01-28T19:32:24.748Z,70.44
2023-01-28T19:37:46.773Z,70.98
2023-01-28T19:43:08.168Z,71.00
2023-01-28T19:48:29.943Z,70.78
2023-01-28T19:53:53.274Z,71.32
2023-01-28T19:59:15.135Z,71.21
2023-01-28T20:04:36.002Z,70.84
2023-01-28T20:09:57.328Z,70.71
2023-01-28T20:15:18.323Z,71.28
2023-01-28T20:20:39.111Z,71.39
2023-01-28T20:26:03.279Z,70.22
2023-01-28T20:31:24.246Z,70.91
2023-01-28T20:36:46.819Z,70.99
2023-01-28T20:42:10.192Z,70.66
2023-01-28T20:47:31.358Z,70.66
2023-01-28T20:52:52.541Z,70.74
2023-01-28T20:58:13.495Z,70.40
2023-01-28T21:03:34.440Z,70.65
2023-01-28T21:08:55.163Z,70.82
2023-01-28T21:14:17.092Z,70.28
2023-01-28T21:19:38.122Z,70.59
2023-01-28T21:24:59.159Z,70.70
2023-01-28T21:30:20.349Z,70.53
2023-01-28T21:35:45.932Z,70.67
2023-01-28T21:41:07.892Z,70.20
2023-01-28T21:46:33.009Z,70.74
2023-01-28T21:51:53.647Z,70.77
2023-01-28T21:57:14.252Z,70.65
2023-01-28T22:02:37.637Z,70.89
2023-01-28T22:07:58.349Z,70.05
2023-01-28T22:13:19.320Z,70.34
2023-01-28T22:18:40.564Z,70.53
2023-01-28T22:24:01.448Z,70.97
2023-01-28T22:29:23.508Z,71.30
2023-01-28T22:34:46.672Z,70.50
2023-01-28T22:40:08.164Z,70.73
2023-01-28T22:45:28.755Z,71.02
2023-01-28T22:50:49.572Z,70.42
2023-01-28T22:56:10.626Z,70.12
2023-01-28T23:01:33.621Z,69.82
2023-01-28T23:06:54.255Z,70.74
2023-01-28T23:12:15.199Z,70.30
2023-01-28T23:17:54.503Z,69.93
2023-01-28T23:23:35.728Z,70.57
2023-01-28T23:28:56.500Z,70.51
2023-01-28T23:34:17.489Z,70.15
2023-01-28T23:39:38.775Z,70.38
2023-01-28T23:44:59.733Z,70.59
2023-01-28T23:50:20.328Z,70.42
2023-01-28T23:55:40.981Z,70.33
